sensor_id;sensor_type;location;lat;lon;timestamp;P1;durP1;ratioP1;P2;durP2;ratioP2
6987;SDS011;3534;49.960;8.018;2024-01-10T00:02:18;14.60;;;7.43;;
6987;SDS011;3534;49.960;8.018;2024-01-10T00:04:45;15.70;;;8.13;;
6987;SDS011;3534;49.960;8.018;2024-01-10T00:07:11;11.20;;;6.97;;
6987;SDS011;3534;49.960;8.018;2024-01-10T00:09:38;18.47;;;8.77;;
6987;SDS011;3534;49.960;8.018;2024-01-10T00:12:05;20.80;;;8.80;;
6987;SDS011;3534;49.960;8.018;2024-01-10T00:14:32;19.73;;;9.10;;
6987;SDS011;3534;49.960;8.018;2024-01-10T00:17:00;14.27;;;7.77;;
6987;SDS011;3534;49.960;8.018;2024-01-10T00:19:27;17.93;;;8.23;;
6987;SDS011;3534;49.960;8.018;2024-01-10T00:21:53;16.33;;;7.67;;
6987;SDS011;3534;49.960;8.018;2024-01-10T00:24:20;17.37;;;8.30;;
6987;SDS011;3534;49.960;8.018;2024-01-10T00:26:47;17.90;;;7.73;;
6987;SDS011;3534;49.960;8.018;2024-01-10T00:29:13;17.00;;;8.57;;
6987;SDS011;3534;49.960;8.018;2024-01-10T00:31:40;19.87;;;8.00;;
6987;SDS011;3534;49.960;8.018;2024-01-10T00:34:08;16.43;;;7.80;;
6987;SDS011;3534;49.960;8.018;2024-01-10T00:36:35;14.90;;;7.03;;
6987;SDS011;3534;49.960;8.018;2024-01-10T00:39:02;13.40;;;7.10;;
6987;SDS011;3534;49.960;8.018;2024-01-10T00:41:28;18.70;;;8.80;;
6987;SDS011;3534;49.960;8.018;2024-01-10T00:43:55;15.80;;;7.73;;
6987;SDS011;3534;49.960;8.018;2024-01-10T00:46:22;19.83;;;9.23;;
6987;SDS011;3534;49.960;8.018;2024-01-10T00:48:48;14.50;;;7.50;;
6987;SDS011;3534;49.960;8.018;2024-01-10T00:51:16;14.33;;;7.70;;
6987;SDS011;3534;49.960;8.018;2024-01-10T00:53:43;15.90;;;7.70;;
6987;SDS011;3534;49.960;8.018;2024-01-10T00:56:09;15.30;;;7.60;;
6987;SDS011;3534;49.960;8.018;2024-01-10T00:58:36;18.93;;;9.70;;
6987;SDS011;3534;49.960;8.018;2024-01-10T01:01:03;17.07;;;8.10;;
6987;SDS011;3534;49.960;8.018;2024-01-10T01:03:30;17.47;;;7.83;;
6987;SDS011;3534;49.960;8.018;2024-01-10T01:05:56;20.50;;;8.13;;
6987;SDS011;3534;49.960;8.018;2024-01-10T01:08:24;17.60;;;8.90;;
6987;SDS011;3534;49.960;8.018;2024-01-10T01:10:51;18.90;;;8.73;;
6987;SDS011;3534;49.960;8.018;2024-01-10T01:13:18;20.43;;;9.40;;
6987;SDS011;3534;49.960;8.018;2024-01-10T01:15:44;16.67;;;8.47;;
6987;SDS011;3534;49.960;8.018;2024-01-10T01:18:11;16.43;;;9.00;;
6987;SDS011;3534;49.960;8.018;2024-01-10T01:20:38;18.87;;;8.97;;
6987;SDS011;3534;49.960;8.018;2024-01-10T01:23:05;18.83;;;7.80;;
6987;SDS011;3534;49.960;8.018;2024-01-10T01:25:33;16.87;;;9.60;;
6987;SDS011;3534;49.960;8.018;2024-01-10T01:27:59;18.57;;;8.80;;
6987;SDS011;3534;49.960;8.018;2024-01-10T01:30:26;17.73;;;9.17;;
6987;SDS011;3534;49.960;8.018;2024-01-10T01:32:53;17.40;;;9.90;;
6987;SDS011;3534;49.960;8.018;2024-01-10T01:35:19;25.50;;;9.70;;
6987;SDS011;3534;49.960;8.018;2024-01-10T01:37:47;20.17;;;10.23;;
6987;SDS011;3534;49.960;8.018;2024-01-10T01:40:13;15.80;;;9.17;;
6987;SDS011;3534;49.960;8.018;2024-01-10T01:42:41;21.53;;;9.47;;
6987;SDS011;3534;49.960;8.018;2024-01-10T01:45:09;17.37;;;9.13;;
6987;SDS011;3534;49.960;8.018;2024-01-10T01:47:36;22.07;;;9.03;;
6987;SDS011;3534;49.960;8.018;2024-01-10T01:50:05;16.57;;;9.23;;
6987;SDS011;3534;49.960;8.018;2024-01-10T01:52:32;18.93;;;9.40;;
6987;SDS011;3534;49.960;8.018;2024-01-10T01:55:00;18.83;;;9.67;;
6987;SDS011;3534;49.960;8.018;2024-01-10T01:57:27;21.60;;;9.10;;
6987;SDS011;3534;49.960;8.018;2024-01-10T01:59:55;22.13;;;9.43;;
6987;SDS011;3534;49.960;8.018;2024-01-10T02:02:22;19.60;;;9.73;;
6987;SDS011;3534;49.960;8.018;2024-01-10T02:04:50;21.90;;;10.70;;
6987;SDS011;3534;49.960;8.018;2024-01-10T02:07:17;24.30;;;10.57;;
6987;SDS011;3534;49.960;8.018;2024-01-10T02:09:43;18.10;;;10.00;;
6987;SDS011;3534;49.960;8.018;2024-01-10T02:12:10;28.53;;;10.97;;
6987;SDS011;3534;49.960;8.018;2024-01-10T02:14:37;23.20;;;11.03;;
6987;SDS011;3534;49.960;8.018;2024-01-10T02:17:05;21.83;;;10.63;;
6987;SDS011;3534;49.960;8.018;2024-01-10T02:19:32;16.50;;;9.80;;
6987;SDS011;3534;49.960;8.018;2024-01-10T02:21:59;20.23;;;11.13;;
6987;SDS011;3534;49.960;8.018;2024-01-10T02:24:27;21.30;;;10.73;;
6987;SDS011;3534;49.960;8.018;2024-01-10T02:26:54;22.60;;;10.50;;
6987;SDS011;3534;49.960;8.018;2024-01-10T02:29:21;21.57;;;10.53;;
6987;SDS011;3534;49.960;8.018;2024-01-10T02:31:49;23.23;;;10.70;;
6987;SDS011;3534;49.960;8.018;2024-01-10T02:34:16;29.07;;;11.10;;
6987;SDS011;3534;49.960;8.018;2024-01-10T02:36:42;26.07;;;11.17;;
6987;SDS011;3534;49.960;8.018;2024-01-10T02:39:09;20.23;;;10.57;;
6987;SDS011;3534;49.960;8.018;2024-01-10T02:41:36;23.30;;;10.60;;
6987;SDS011;3534;49.960;8.018;2024-01-10T02:44:04;18.33;;;10.40;;
6987;SDS011;3534;49.960;8.018;2024-01-10T02:46:30;27.67;;;11.97;;
6987;SDS011;3534;49.960;8.018;2024-01-10T02:48:57;22.50;;;10.30;;
6987;SDS011;3534;49.960;8.018;2024-01-10T02:51:27;19.63;;;10.20;;
6987;SDS011;3534;49.960;8.018;2024-01-10T02:53:55;20.13;;;9.77;;
6987;SDS011;3534;49.960;8.018;2024-01-10T02:56:21;21.43;;;10.20;;
6987;SDS011;3534;49.960;8.018;2024-01-10T02:58:48;22.53;;;10.03;;
6987;SDS011;3534;49.960;8.018;2024-01-10T03:01:16;21.53;;;10.80;;
6987;SDS011;3534;49.960;8.018;2024-01-10T03:03:43;20.00;;;10.73;;
6987;SDS011;3534;49.960;8.018;2024-01-10T03:06:09;23.60;;;10.70;;
6987;SDS011;3534;49.960;8.018;2024-01-10T03:08:36;25.03;;;10.87;;
6987;SDS011;3534;49.960;8.018;2024-01-10T03:11:03;22.30;;;12.03;;
6987;SDS011;3534;49.960;8.018;2024-01-10T03:13:29;21.60;;;11.70;;
6987;SDS011;3534;49.960;8.018;2024-01-10T03:15:56;22.00;;;11.60;;
6987;SDS011;3534;49.960;8.018;2024-01-10T03:18:24;23.27;;;12.60;;
6987;SDS011;3534;49.960;8.018;2024-01-10T03:20:51;24.47;;;10.67;;
6987;SDS011;3534;49.960;8.018;2024-01-10T03:23:17;24.07;;;10.73;;
6987;SDS011;3534;49.960;8.018;2024-01-10T03:25:44;20.33;;;10.00;;
6987;SDS011;3534;49.960;8.018;2024-01-10T03:28:14;24.60;;;11.70;;
6987;SDS011;3534;49.960;8.018;2024-01-10T03:30:42;20.13;;;10.37;;
6987;SDS011;3534;49.960;8.018;2024-01-10T03:33:09;28.40;;;10.87;;
6987;SDS011;3534;49.960;8.018;2024-01-10T03:35:37;20.43;;;10.37;;
6987;SDS011;3534;49.960;8.018;2024-01-10T03:38:03;23.30;;;10.83;;
6987;SDS011;3534;49.960;8.018;2024-01-10T03:40:30;17.40;;;9.77;;
6987;SDS011;3534;49.960;8.018;2024-01-10T03:42:57;22.17;;;9.87;;
6987;SDS011;3534;49.960;8.018;2024-01-10T03:45:23;21.93;;;10.33;;
6987;SDS011;3534;49.960;8.018;2024-01-10T03:47:50;24.80;;;10.07;;
6987;SDS011;3534;49.960;8.018;2024-01-10T03:50:17;19.23;;;10.17;;
6987;SDS011;3534;49.960;8.018;2024-01-10T03:52:46;19.83;;;11.00;;
6987;SDS011;3534;49.960;8.018;2024-01-10T03:55:13;22.80;;;10.80;;
6987;SDS011;3534;49.960;8.018;2024-01-10T03:57:40;19.57;;;9.60;;
6987;SDS011;3534;49.960;8.018;2024-01-10T04:00:07;18.83;;;9.40;;
6987;SDS011;3534;49.960;8.018;2024-01-10T04:02:35;18.43;;;9.67;;
6987;SDS011;3534;49.960;8.018;2024-01-10T04:05:02;21.20;;;9.30;;
6987;SDS011;3534;49.960;8.018;2024-01-10T04:07:31;22.00;;;10.30;;
6987;SDS011;3534;49.960;8.018;2024-01-10T04:09:59;20.90;;;9.73;;
6987;SDS011;3534;49.960;8.018;2024-01-10T04:12:26;19.50;;;9.87;;
6987;SDS011;3534;49.960;8.018;2024-01-10T04:14:52;17.60;;;9.50;;
6987;SDS011;3534;49.960;8.018;2024-01-10T04:17:19;17.77;;;9.50;;
6987;SDS011;3534;49.960;8.018;2024-01-10T04:19:46;18.03;;;9.43;;
6987;SDS011;3534;49.960;8.018;2024-01-10T04:22:13;20.57;;;11.10;;
6987;SDS011;3534;49.960;8.018;2024-01-10T04:24:39;18.30;;;9.80;;
6987;SDS011;3534;49.960;8.018;2024-01-10T04:27:07;18.07;;;8.70;;
6987;SDS011;3534;49.960;8.018;2024-01-10T04:29:34;19.33;;;9.60;;
6987;SDS011;3534;49.960;8.018;2024-01-10T04:32:00;23.73;;;10.73;;
6987;SDS011;3534;49.960;8.018;2024-01-10T04:34:27;18.30;;;9.37;;
6987;SDS011;3534;49.960;8.018;2024-01-10T04:36:54;20.47;;;9.20;;
6987;SDS011;3534;49.960;8.018;2024-01-10T04:39:20;16.50;;;8.83;;
6987;SDS011;3534;49.960;8.018;2024-01-10T04:41:47;20.53;;;9.83;;
6987;SDS011;3534;49.960;8.018;2024-01-10T04:44:15;16.90;;;8.80;;
6987;SDS011;3534;49.960;8.018;2024-01-10T04:46:42;15.50;;;8.57;;
6987;SDS011;3534;49.960;8.018;2024-01-10T04:49:09;13.57;;;8.70;;
6987;SDS011;3534;49.960;8.018;2024-01-10T04:51:36;16.43;;;9.40;;
6987;SDS011;3534;49.960;8.018;2024-01-10T04:54:02;22.10;;;8.80;;
6987;SDS011;3534;49.960;8.018;2024-01-10T04:56:29;13.60;;;7.73;;
6987;SDS011;3534;49.960;8.018;2024-01-10T04:58:56;19.40;;;9.63;;
6987;SDS011;3534;49.960;8.018;2024-01-10T05:01:24;17.33;;;9.17;;
6987;SDS011;3534;49.960;8.018;2024-01-10T05:03:50;21.27;;;8.57;;
6987;SDS011;3534;49.960;8.018;2024-01-10T05:06:17;23.97;;;11.07;;
6987;SDS011;3534;49.960;8.018;2024-01-10T05:08:44;22.53;;;10.20;;
6987;SDS011;3534;49.960;8.018;2024-01-10T05:11:10;19.10;;;9.80;;
6987;SDS011;3534;49.960;8.018;2024-01-10T05:13:37;20.70;;;10.60;;
6987;SDS011;3534;49.960;8.018;2024-01-10T05:16:04;21.50;;;10.33;;
6987;SDS011;3534;49.960;8.018;2024-01-10T05:18:32;23.20;;;9.90;;
6987;SDS011;3534;49.960;8.018;2024-01-10T05:20:59;20.80;;;10.00;;
6987;SDS011;3534;49.960;8.018;2024-01-10T05:23:26;24.70;;;12.87;;
6987;SDS011;3534;49.960;8.018;2024-01-10T05:25:53;30.03;;;11.80;;
6987;SDS011;3534;49.960;8.018;2024-01-10T05:28:20;25.17;;;11.73;;
6987;SDS011;3534;49.960;8.018;2024-01-10T05:30:47;22.97;;;12.50;;
6987;SDS011;3534;49.960;8.018;2024-01-10T05:33:13;24.10;;;12.23;;
6987;SDS011;3534;49.960;8.018;2024-01-10T05:35:41;28.07;;;13.00;;
6987;SDS011;3534;49.960;8.018;2024-01-10T05:38:08;21.20;;;12.33;;
6987;SDS011;3534;49.960;8.018;2024-01-10T05:40:35;26.20;;;12.87;;
6987;SDS011;3534;49.960;8.018;2024-01-10T05:43:01;32.20;;;13.10;;
6987;SDS011;3534;49.960;8.018;2024-01-10T05:45:28;30.80;;;12.53;;
6987;SDS011;3534;49.960;8.018;2024-01-10T05:47:55;27.10;;;13.27;;
6987;SDS011;3534;49.960;8.018;2024-01-10T05:50:22;29.90;;;13.47;;
6987;SDS011;3534;49.960;8.018;2024-01-10T05:52:50;27.20;;;11.87;;
6987;SDS011;3534;49.960;8.018;2024-01-10T05:55:18;30.17;;;12.27;;
6987;SDS011;3534;49.960;8.018;2024-01-10T06:00:13;28.97;;;12.60;;
6987;SDS011;3534;49.960;8.018;2024-01-10T06:02:42;27.77;;;12.70;;
6987;SDS011;3534;49.960;8.018;2024-01-10T06:05:09;26.70;;;13.33;;
6987;SDS011;3534;49.960;8.018;2024-01-10T06:07:36;30.20;;;13.70;;
6987;SDS011;3534;49.960;8.018;2024-01-10T06:10:05;25.57;;;12.40;;
6987;SDS011;3534;49.960;8.018;2024-01-10T06:12:33;25.80;;;12.13;;
6987;SDS011;3534;49.960;8.018;2024-01-10T06:14:59;26.50;;;13.70;;
6987;SDS011;3534;49.960;8.018;2024-01-10T06:17:26;26.47;;;12.70;;
6987;SDS011;3534;49.960;8.018;2024-01-10T06:19:53;23.93;;;12.97;;
6987;SDS011;3534;49.960;8.018;2024-01-10T06:22:19;26.83;;;12.60;;
6987;SDS011;3534;49.960;8.018;2024-01-10T06:24:50;23.20;;;12.60;;
6987;SDS011;3534;49.960;8.018;2024-01-10T06:27:18;25.53;;;12.07;;
6987;SDS011;3534;49.960;8.018;2024-01-10T06:29:44;23.10;;;12.40;;
6987;SDS011;3534;49.960;8.018;2024-01-10T06:32:11;23.50;;;11.17;;
6987;SDS011;3534;49.960;8.018;2024-01-10T06:34:39;23.80;;;12.57;;
6987;SDS011;3534;49.960;8.018;2024-01-10T06:37:06;29.13;;;12.50;;
6987;SDS011;3534;49.960;8.018;2024-01-10T06:39:32;28.63;;;15.20;;
6987;SDS011;3534;49.960;8.018;2024-01-10T06:41:59;23.03;;;11.67;;
6987;SDS011;3534;49.960;8.018;2024-01-10T06:44:30;22.53;;;11.47;;
6987;SDS011;3534;49.960;8.018;2024-01-10T06:46:56;26.60;;;11.40;;
6987;SDS011;3534;49.960;8.018;2024-01-10T06:49:23;26.60;;;12.13;;
6987;SDS011;3534;49.960;8.018;2024-01-10T06:51:50;25.90;;;12.77;;
6987;SDS011;3534;49.960;8.018;2024-01-10T06:54:16;24.33;;;12.10;;
6987;SDS011;3534;49.960;8.018;2024-01-10T06:56:44;24.37;;;12.60;;
6987;SDS011;3534;49.960;8.018;2024-01-10T06:59:11;27.90;;;13.93;;
6987;SDS011;3534;49.960;8.018;2024-01-10T07:01:39;26.40;;;14.40;;
6987;SDS011;3534;49.960;8.018;2024-01-10T07:04:05;21.53;;;11.30;;
6987;SDS011;3534;49.960;8.018;2024-01-10T07:06:32;23.63;;;11.43;;
6987;SDS011;3534;49.960;8.018;2024-01-10T07:08:59;26.67;;;13.37;;
6987;SDS011;3534;49.960;8.018;2024-01-10T07:11:25;26.83;;;12.50;;
6987;SDS011;3534;49.960;8.018;2024-01-10T07:13:54;24.27;;;11.93;;
6987;SDS011;3534;49.960;8.018;2024-01-10T07:16:20;21.70;;;11.60;;
6987;SDS011;3534;49.960;8.018;2024-01-10T07:18:48;25.13;;;13.10;;
6987;SDS011;3534;49.960;8.018;2024-01-10T07:21:16;21.17;;;11.90;;
6987;SDS011;3534;49.960;8.018;2024-01-10T07:23:43;34.80;;;14.13;;
6987;SDS011;3534;49.960;8.018;2024-01-10T07:26:12;21.63;;;11.17;;
6987;SDS011;3534;49.960;8.018;2024-01-10T07:28:39;23.47;;;11.47;;
6987;SDS011;3534;49.960;8.018;2024-01-10T07:31:06;24.27;;;12.53;;
6987;SDS011;3534;49.960;8.018;2024-01-10T07:33:33;26.73;;;11.30;;
6987;SDS011;3534;49.960;8.018;2024-01-10T07:36:01;25.77;;;12.77;;
6987;SDS011;3534;49.960;8.018;2024-01-10T07:38:28;23.13;;;11.93;;
6987;SDS011;3534;49.960;8.018;2024-01-10T07:40:55;24.73;;;12.23;;
6987;SDS011;3534;49.960;8.018;2024-01-10T07:43:24;19.80;;;11.07;;
6987;SDS011;3534;49.960;8.018;2024-01-10T07:45:52;26.63;;;13.07;;
6987;SDS011;3534;49.960;8.018;2024-01-10T07:48:19;24.83;;;12.40;;
6987;SDS011;3534;49.960;8.018;2024-01-10T07:50:45;24.80;;;12.47;;
6987;SDS011;3534;49.960;8.018;2024-01-10T07:53:13;24.67;;;11.87;;
6987;SDS011;3534;49.960;8.018;2024-01-10T07:55:40;21.13;;;11.30;;
6987;SDS011;3534;49.960;8.018;2024-01-10T07:58:07;27.97;;;11.97;;
6987;SDS011;3534;49.960;8.018;2024-01-10T08:00:33;20.90;;;11.00;;
6987;SDS011;3534;49.960;8.018;2024-01-10T08:03:00;26.17;;;12.67;;
6987;SDS011;3534;49.960;8.018;2024-01-10T08:05:27;24.07;;;13.07;;
6987;SDS011;3534;49.960;8.018;2024-01-10T08:07:54;25.83;;;12.70;;
6987;SDS011;3534;49.960;8.018;2024-01-10T08:10:22;24.03;;;12.23;;
6987;SDS011;3534;49.960;8.018;2024-01-10T08:12:50;27.40;;;12.47;;
6987;SDS011;3534;49.960;8.018;2024-01-10T08:15:17;26.37;;;13.10;;
6987;SDS011;3534;49.960;8.018;2024-01-10T08:17:45;33.17;;;16.70;;
6987;SDS011;3534;49.960;8.018;2024-01-10T08:20:11;26.73;;;11.97;;
6987;SDS011;3534;49.960;8.018;2024-01-10T08:22:40;30.60;;;13.70;;
6987;SDS011;3534;49.960;8.018;2024-01-10T08:25:08;23.43;;;12.40;;
6987;SDS011;3534;49.960;8.018;2024-01-10T08:27:36;27.27;;;13.80;;
6987;SDS011;3534;49.960;8.018;2024-01-10T08:30:03;25.70;;;13.30;;
6987;SDS011;3534;49.960;8.018;2024-01-10T08:32:34;29.80;;;13.20;;
6987;SDS011;3534;49.960;8.018;2024-01-10T08:35:01;31.73;;;13.20;;
6987;SDS011;3534;49.960;8.018;2024-01-10T08:37:30;24.97;;;13.20;;
6987;SDS011;3534;49.960;8.018;2024-01-10T08:39:57;26.87;;;13.00;;
6987;SDS011;3534;49.960;8.018;2024-01-10T08:42:25;26.87;;;13.30;;
6987;SDS011;3534;49.960;8.018;2024-01-10T08:44:54;31.00;;;13.90;;
6987;SDS011;3534;49.960;8.018;2024-01-10T08:47:21;26.23;;;12.83;;
6987;SDS011;3534;49.960;8.018;2024-01-10T08:49:47;27.47;;;12.97;;
6987;SDS011;3534;49.960;8.018;2024-01-10T08:52:14;28.07;;;13.87;;
6987;SDS011;3534;49.960;8.018;2024-01-10T08:54:41;30.47;;;13.00;;
6987;SDS011;3534;49.960;8.018;2024-01-10T08:57:07;29.33;;;13.40;;
6987;SDS011;3534;49.960;8.018;2024-01-10T08:59:34;28.40;;;13.83;;
6987;SDS011;3534;49.960;8.018;2024-01-10T09:02:02;30.80;;;14.20;;
6987;SDS011;3534;49.960;8.018;2024-01-10T09:04:29;27.33;;;13.57;;
6987;SDS011;3534;49.960;8.018;2024-01-10T09:06:56;28.43;;;14.00;;
6987;SDS011;3534;49.960;8.018;2024-01-10T09:09:22;36.93;;;15.60;;
6987;SDS011;3534;49.960;8.018;2024-01-10T09:11:49;26.23;;;12.80;;
6987;SDS011;3534;49.960;8.018;2024-01-10T09:14:16;25.10;;;12.73;;
6987;SDS011;3534;49.960;8.018;2024-01-10T09:16:42;26.47;;;13.47;;
6987;SDS011;3534;49.960;8.018;2024-01-10T09:19:10;23.70;;;12.60;;
6987;SDS011;3534;49.960;8.018;2024-01-10T09:21:37;30.23;;;14.07;;
6987;SDS011;3534;49.960;8.018;2024-01-10T09:24:04;34.77;;;13.83;;
6987;SDS011;3534;49.960;8.018;2024-01-10T09:26:36;28.37;;;14.47;;
6987;SDS011;3534;49.960;8.018;2024-01-10T09:29:02;32.70;;;14.33;;
6987;SDS011;3534;49.960;8.018;2024-01-10T09:31:30;29.97;;;14.83;;
6987;SDS011;3534;49.960;8.018;2024-01-10T09:33:57;29.83;;;14.00;;
6987;SDS011;3534;49.960;8.018;2024-01-10T09:36:25;22.80;;;12.70;;
6987;SDS011;3534;49.960;8.018;2024-01-10T09:38:52;25.33;;;12.43;;
6987;SDS011;3534;49.960;8.018;2024-01-10T09:41:19;27.00;;;13.47;;
6987;SDS011;3534;49.960;8.018;2024-01-10T09:43:46;28.83;;;13.77;;
6987;SDS011;3534;49.960;8.018;2024-01-10T09:46:13;29.27;;;13.40;;
6987;SDS011;3534;49.960;8.018;2024-01-10T09:48:42;30.67;;;13.60;;
6987;SDS011;3534;49.960;8.018;2024-01-10T09:51:09;28.80;;;13.47;;
6987;SDS011;3534;49.960;8.018;2024-01-10T09:53:39;30.17;;;13.90;;
6987;SDS011;3534;49.960;8.018;2024-01-10T09:56:10;28.63;;;12.27;;
6987;SDS011;3534;49.960;8.018;2024-01-10T09:58:37;25.77;;;12.40;;
6987;SDS011;3534;49.960;8.018;2024-01-10T10:01:05;27.37;;;12.80;;
6987;SDS011;3534;49.960;8.018;2024-01-10T10:03:33;24.00;;;13.20;;
6987;SDS011;3534;49.960;8.018;2024-01-10T10:06:02;30.00;;;13.53;;
6987;SDS011;3534;49.960;8.018;2024-01-10T10:08:29;27.20;;;12.40;;
6987;SDS011;3534;49.960;8.018;2024-01-10T10:10:57;25.10;;;11.80;;
6987;SDS011;3534;49.960;8.018;2024-01-10T10:13:24;28.80;;;14.27;;
6987;SDS011;3534;49.960;8.018;2024-01-10T10:15:58;26.27;;;12.60;;
6987;SDS011;3534;49.960;8.018;2024-01-10T10:18:26;21.30;;;11.87;;
6987;SDS011;3534;49.960;8.018;2024-01-10T10:21:06;24.00;;;12.27;;
6987;SDS011;3534;49.960;8.018;2024-01-10T10:23:34;22.37;;;11.80;;
6987;SDS011;3534;49.960;8.018;2024-01-10T10:26:10;29.17;;;13.13;;
6987;SDS011;3534;49.960;8.018;2024-01-10T10:28:39;26.90;;;12.80;;
6987;SDS011;3534;49.960;8.018;2024-01-10T10:31:07;27.00;;;13.50;;
6987;SDS011;3534;49.960;8.018;2024-01-10T10:33:33;31.50;;;13.37;;
6987;SDS011;3534;49.960;8.018;2024-01-10T10:36:00;24.20;;;12.60;;
6987;SDS011;3534;49.960;8.018;2024-01-10T10:38:28;24.50;;;12.30;;
6987;SDS011;3534;49.960;8.018;2024-01-10T10:40:55;25.87;;;12.40;;
6987;SDS011;3534;49.960;8.018;2024-01-10T10:43:25;23.23;;;10.90;;
6987;SDS011;3534;49.960;8.018;2024-01-10T10:45:52;24.30;;;11.80;;
6987;SDS011;3534;49.960;8.018;2024-01-10T10:48:21;24.83;;;12.03;;
6987;SDS011;3534;49.960;8.018;2024-01-10T10:50:50;23.37;;;11.87;;
6987;SDS011;3534;49.960;8.018;2024-01-10T10:53:21;26.90;;;11.90;;
6987;SDS011;3534;49.960;8.018;2024-01-10T10:55:51;26.60;;;13.70;;
6987;SDS011;3534;49.960;8.018;2024-01-10T10:58:19;24.77;;;11.47;;
6987;SDS011;3534;49.960;8.018;2024-01-10T11:00:48;21.17;;;11.60;;
6987;SDS011;3534;49.960;8.018;2024-01-10T11:03:16;26.33;;;12.47;;
6987;SDS011;3534;49.960;8.018;2024-01-10T11:05:44;21.97;;;11.13;;
6987;SDS011;3534;49.960;8.018;2024-01-10T11:08:13;22.60;;;12.27;;
6987;SDS011;3534;49.960;8.018;2024-01-10T11:10:42;25.53;;;11.03;;
6987;SDS011;3534;49.960;8.018;2024-01-10T11:13:18;22.60;;;11.87;;
6987;SDS011;3534;49.960;8.018;2024-01-10T11:15:59;21.37;;;10.43;;
6987;SDS011;3534;49.960;8.018;2024-01-10T11:18:54;21.10;;;12.67;;
6987;SDS011;3534;49.960;8.018;2024-01-10T11:21:37;27.53;;;11.20;;
6987;SDS011;3534;49.960;8.018;2024-01-10T11:24:11;22.70;;;10.63;;
6987;SDS011;3534;49.960;8.018;2024-01-10T11:26:38;22.50;;;11.10;;
6987;SDS011;3534;49.960;8.018;2024-01-10T11:29:05;25.47;;;12.03;;
6987;SDS011;3534;49.960;8.018;2024-01-10T11:31:33;24.30;;;11.60;;
6987;SDS011;3534;49.960;8.018;2024-01-10T11:34:00;20.23;;;11.27;;
6987;SDS011;3534;49.960;8.018;2024-01-10T11:36:28;28.00;;;12.67;;
6987;SDS011;3534;49.960;8.018;2024-01-10T11:38:57;22.80;;;11.50;;
6987;SDS011;3534;49.960;8.018;2024-01-10T11:41:27;25.37;;;12.20;;
6987;SDS011;3534;49.960;8.018;2024-01-10T11:46:58;27.77;;;11.70;;
6987;SDS011;3534;49.960;8.018;2024-01-10T11:49:26;26.03;;;11.27;;
6987;SDS011;3534;49.960;8.018;2024-01-10T11:51:53;24.93;;;10.77;;
6987;SDS011;3534;49.960;8.018;2024-01-10T11:54:37;20.70;;;12.03;;
6987;SDS011;3534;49.960;8.018;2024-01-10T11:57:07;22.27;;;11.87;;
6987;SDS011;3534;49.960;8.018;2024-01-10T11:59:36;31.00;;;13.10;;
6987;SDS011;3534;49.960;8.018;2024-01-10T12:02:05;17.87;;;10.27;;
6987;SDS011;3534;49.960;8.018;2024-01-10T12:04:33;28.90;;;12.43;;
6987;SDS011;3534;49.960;8.018;2024-01-10T12:07:00;23.37;;;10.97;;
6987;SDS011;3534;49.960;8.018;2024-01-10T12:09:28;26.63;;;11.77;;
6987;SDS011;3534;49.960;8.018;2024-01-10T12:11:55;24.87;;;12.73;;
6987;SDS011;3534;49.960;8.018;2024-01-10T12:14:22;26.97;;;12.80;;
6987;SDS011;3534;49.960;8.018;2024-01-10T12:16:50;25.47;;;13.20;;
6987;SDS011;3534;49.960;8.018;2024-01-10T12:19:19;23.70;;;13.67;;
6987;SDS011;3534;49.960;8.018;2024-01-10T12:21:45;24.57;;;12.70;;
6987;SDS011;3534;49.960;8.018;2024-01-10T12:24:13;27.23;;;13.23;;
6987;SDS011;3534;49.960;8.018;2024-01-10T12:26:43;23.90;;;12.13;;
6987;SDS011;3534;49.960;8.018;2024-01-10T12:29:10;21.77;;;11.97;;
6987;SDS011;3534;49.960;8.018;2024-01-10T12:31:37;23.93;;;12.67;;
6987;SDS011;3534;49.960;8.018;2024-01-10T12:34:06;20.50;;;11.90;;
6987;SDS011;3534;49.960;8.018;2024-01-10T12:36:34;24.07;;;12.40;;
6987;SDS011;3534;49.960;8.018;2024-01-10T12:39:01;21.97;;;11.83;;
6987;SDS011;3534;49.960;8.018;2024-01-10T12:41:29;22.23;;;12.20;;
6987;SDS011;3534;49.960;8.018;2024-01-10T12:43:56;25.80;;;14.70;;
6987;SDS011;3534;49.960;8.018;2024-01-10T12:46:28;21.73;;;12.37;;
6987;SDS011;3534;49.960;8.018;2024-01-10T12:48:58;22.50;;;13.27;;
6987;SDS011;3534;49.960;8.018;2024-01-10T12:51:27;17.33;;;11.13;;
6987;SDS011;3534;49.960;8.018;2024-01-10T12:53:56;23.10;;;11.90;;
6987;SDS011;3534;49.960;8.018;2024-01-10T12:56:24;21.47;;;12.70;;
6987;SDS011;3534;49.960;8.018;2024-01-10T12:58:52;19.90;;;12.93;;
6987;SDS011;3534;49.960;8.018;2024-01-10T13:01:19;22.23;;;12.00;;
6987;SDS011;3534;49.960;8.018;2024-01-10T13:03:47;22.47;;;12.70;;
6987;SDS011;3534;49.960;8.018;2024-01-10T13:06:14;20.07;;;11.70;;
6987;SDS011;3534;49.960;8.018;2024-01-10T13:08:41;19.77;;;11.70;;
6987;SDS011;3534;49.960;8.018;2024-01-10T13:11:09;22.70;;;12.97;;
6987;SDS011;3534;49.960;8.018;2024-01-10T13:13:39;20.13;;;12.97;;
6987;SDS011;3534;49.960;8.018;2024-01-10T13:16:06;19.23;;;11.20;;
6987;SDS011;3534;49.960;8.018;2024-01-10T13:18:35;18.33;;;10.63;;
6987;SDS011;3534;49.960;8.018;2024-01-10T13:21:02;21.63;;;11.50;;
6987;SDS011;3534;49.960;8.018;2024-01-10T13:23:29;18.40;;;10.60;;
6987;SDS011;3534;49.960;8.018;2024-01-10T13:25:56;24.30;;;11.87;;
6987;SDS011;3534;49.960;8.018;2024-01-10T13:28:25;25.20;;;11.80;;
6987;SDS011;3534;49.960;8.018;2024-01-10T13:30:52;20.90;;;11.37;;
6987;SDS011;3534;49.960;8.018;2024-01-10T13:33:21;26.10;;;10.77;;
6987;SDS011;3534;49.960;8.018;2024-01-10T13:35:47;23.40;;;11.83;;
6987;SDS011;3534;49.960;8.018;2024-01-10T13:38:15;19.50;;;10.67;;
6987;SDS011;3534;49.960;8.018;2024-01-10T13:40:43;22.93;;;11.30;;
6987;SDS011;3534;49.960;8.018;2024-01-10T13:43:08;20.57;;;10.83;;
6987;SDS011;3534;49.960;8.018;2024-01-10T13:45:37;22.07;;;11.03;;
6987;SDS011;3534;49.960;8.018;2024-01-10T13:48:04;19.60;;;11.07;;
6987;SDS011;3534;49.960;8.018;2024-01-10T13:50:31;17.97;;;10.83;;
6987;SDS011;3534;49.960;8.018;2024-01-10T13:52:57;21.23;;;10.87;;
6987;SDS011;3534;49.960;8.018;2024-01-10T13:55:24;19.10;;;11.40;;
6987;SDS011;3534;49.960;8.018;2024-01-10T13:57:51;19.50;;;10.57;;
6987;SDS011;3534;49.960;8.018;2024-01-10T14:00:19;23.90;;;12.53;;
6987;SDS011;3534;49.960;8.018;2024-01-10T14:02:47;19.23;;;10.23;;
6987;SDS011;3534;49.960;8.018;2024-01-10T14:05:14;22.37;;;12.50;;
6987;SDS011;3534;49.960;8.018;2024-01-10T14:07:41;22.00;;;12.00;;
6987;SDS011;3534;49.960;8.018;2024-01-10T14:10:09;25.47;;;14.43;;
6987;SDS011;3534;49.960;8.018;2024-01-10T14:12:38;19.40;;;9.70;;
6987;SDS011;3534;49.960;8.018;2024-01-10T14:15:05;19.73;;;11.13;;
6987;SDS011;3534;49.960;8.018;2024-01-10T14:17:33;19.83;;;10.50;;
6987;SDS011;3534;49.960;8.018;2024-01-10T14:20:01;22.63;;;12.47;;
6987;SDS011;3534;49.960;8.018;2024-01-10T14:22:28;23.10;;;11.97;;
6987;SDS011;3534;49.960;8.018;2024-01-10T14:24:55;19.60;;;12.20;;
6987;SDS011;3534;49.960;8.018;2024-01-10T14:27:21;21.53;;;11.77;;
6987;SDS011;3534;49.960;8.018;2024-01-10T14:29:49;25.70;;;12.07;;
6987;SDS011;3534;49.960;8.018;2024-01-10T14:32:16;26.23;;;12.10;;
6987;SDS011;3534;49.960;8.018;2024-01-10T14:34:43;26.80;;;12.70;;
6987;SDS011;3534;49.960;8.018;2024-01-10T14:37:12;23.37;;;11.60;;
6987;SDS011;3534;49.960;8.018;2024-01-10T14:39:39;25.37;;;11.73;;
6987;SDS011;3534;49.960;8.018;2024-01-10T14:42:06;25.10;;;13.10;;
6987;SDS011;3534;49.960;8.018;2024-01-10T14:44:33;24.70;;;12.27;;
6987;SDS011;3534;49.960;8.018;2024-01-10T14:47:00;28.37;;;12.10;;
6987;SDS011;3534;49.960;8.018;2024-01-10T14:49:28;20.70;;;11.60;;
6987;SDS011;3534;49.960;8.018;2024-01-10T14:51:55;28.40;;;12.40;;
6987;SDS011;3534;49.960;8.018;2024-01-10T14:54:23;22.07;;;11.67;;
6987;SDS011;3534;49.960;8.018;2024-01-10T14:56:50;29.43;;;13.27;;
6987;SDS011;3534;49.960;8.018;2024-01-10T14:59:18;21.67;;;12.20;;